Time,TemperatureF,DewpointF,PressureIn,WindDirection,WindDirectionDegrees,WindSpeedMPH,WindSpeedGustMPH,Humidity,HourlyPrecipIn,Conditions,Clouds,dailyrainin,SoftwareType,DateUTC
2013-07-04 00:01:00,73.7,42.0,29.48,NNE,18,3.0,-999.0,32,-99.99,,,0.00,weatherlink.com 1.10,2013-07-04 06:01:00,
2013-07-04 00:16:00,73.5,43.0,29.48,ENE,58,5.0,-999.0,33,-99.99,,,0.00,weatherlink.com 1.10,2013-07-04 06:16:00,
2013-07-04 00:31:00,73.2,42.0,29.49,NE,38,0.0,-999.0,33,-99.99,,,0.00,weatherlink.com 1.10,2013-07-04 06:31:00,
2013-07-04 00:46:00,73.0,42.0,29.49,NE,37,5.0,-999.0,33,-99.99,,,0.00,weatherlink.com 1.10,2013-07-04 06:46:00,
2013-07-04 01:01:00,72.3,42.0,29.49,NE,37,0.0,-999.0,33,-99.99,,,0.00,weatherlink.com 1.10,2013-07-04 07:01:00,
2013-07-04 01:16:00,70.9,42.0,29.50,NE,37,0.0,-999.0,35,-99.99,,,0.00,weatherlink.com 1.10,2013-07-04 07:16:00,
2013-07-04 01:32:00,69.6,42.0,29.50,NE,37,0.0,-999.0,37,-99.99,,,0.00,weatherlink.com 1.10,2013-07-04 07:32:00,
2013-07-04 01:47:00,68.9,43.0,29.50,NE,37,0.0,-999.0,39,-99.99,,,0.00,weatherlink.com 1.10,2013-07-04 07:47:00,
2013-07-04 02:02:00,68.6,43.0,29.48,NE,37,3.0,-999.0,39,-99.99,,,0.00,weatherlink.com 1.10,2013-07-04 08:02:00,
2013-07-04 02:17:00,69.1,42.0,29.48,NE,37,0.0,-999.0,38,-99.99,,,0.00,weatherlink.com 1.10,2013-07-04 08:17:00,
2013-07-04 02:32:00,68.1,42.0,29.48,NE,37,0.0,-999.0,39,-99.99,,,0.00,weatherlink.com 1.10,2013-07-04 08:32:00,
2013-07-04 02:47:00,65.3,41.0,29.50,NE,37,0.0,-999.0,42,-99.99,,,0.00,weatherlink.com 1.10,2013-07-04 08:47:00,
2013-07-04 03:02:00,63.7,42.0,29.50,NNE,15,3.0,-999.0,46,-99.99,,,0.00,weatherlink.com 1.10,2013-07-04 09:02:00,
2013-07-04 03:17:00,62.9,42.0,29.51,NNE,14,2.0,-999.0,47,-99.99,,,0.00,weatherlink.com 1.10,2013-07-04 09:17:00,
2013-07-04 03:32:00,62.4,43.0,29.51,NNE,14,0.0,-999.0,49,-99.99,,,0.00,weatherlink.com 1.10,2013-07-04 09:32:00,
2013-07-04 03:47:00,62.3,44.0,29.51,NNE,21,3.0,-999.0,51,-99.99,,,0.00,weatherlink.com 1.10,2013-07-04 09:47:00,
2013-07-04 04:02:00,62.6,42.0,29.50,NNE,22,4.0,-999.0,48,-99.99,,,0.00,weatherlink.com 1.10,2013-07-04 10:02:00,
2013-07-04 04:17:00,61.8,42.0,29.50,NNE,22,1.0,-999.0,48,-99.99,,,0.00,weatherlink.com 1.10,2013-07-04 10:17:00,
2013-07-04 04:32:00,61.2,42.0,29.49,NNE,22,0.0,-999.0,50,-99.99,,,0.00,weatherlink.com 1.10,2013-07-04 10:32:00,
2013-07-04 04:47:00,62.0,42.0,29.47,NNE,22,3.0,-999.0,49,-99.99,,,0.00,weatherlink.com 1.10,2013-07-04 10:47:00,
2013-07-04 05:02:00,61.8,44.0,29.47,North,9,4.0,-999.0,52,-99.99,,,0.00,weatherlink.com 1.10,2013-07-04 11:02:00,
2013-07-04 05:17:00,61.0,43.0,29.49,North,10,2.0,-999.0,51,-99.99,,,0.00,weatherlink.com 1.10,2013-07-04 11:17:00,
2013-07-04 05:32:00,60.5,43.0,29.47,North,10,1.0,-999.0,52,-99.99,,,0.00,weatherlink.com 1.10,2013-07-04 11:32:00,
2013-07-04 05:48:00,60.5,42.0,29.46,NNE,12,2.0,-999.0,50,-99.99,,,0.00,weatherlink.com 1.10,2013-07-04 11:48:00,
2013-07-04 06:02:00,60.1,42.0,29.48,NNE,12,0.0,-999.0,52,-99.99,,,0.00,weatherlink.com 1.10,2013-07-04 12:02:00,
2013-07-04 06:17:00,60.1,42.0,29.48,NNE,12,4.0,-999.0,51,-99.99,,,0.00,weatherlink.com 1.10,2013-07-04 12:17:00,
2013-07-04 06:33:00,60.2,42.0,29.49,NNE,12,0.0,-999.0,51,-99.99,,,0.00,weatherlink.com 1.10,2013-07-04 12:33:00,
2013-07-04 06:48:00,60.4,43.0,29.50,NNE,12,0.0,-999.0,53,-99.99,,,0.00,weatherlink.com 1.10,2013-07-04 12:48:00,
2013-07-04 07:02:00,61.2,43.0,29.49,NNE,12,0.0,-999.0,51,-99.99,,,0.00,weatherlink.com 1.10,2013-07-04 13:02:00,
2013-07-04 07:18:00,63.1,43.0,29.48,NNE,12,0.0,-999.0,49,-99.99,,,0.00,weatherlink.com 1.10,2013-07-04 13:18:00,
2013-07-04 07:33:00,63.9,43.0,29.55,NNE,12,2.0,-999.0,46,-99.99,,,0.00,weatherlink.com 1.10,2013-07-04 13:33:00,
2013-07-04 07:48:00,64.2,43.0,29.56,NNE,12,6.0,-999.0,46,-99.99,,,0.00,weatherlink.com 1.10,2013-07-04 13:48:00,
2013-07-04 08:04:00,67.6,47.0,29.54,North,8,0.0,-999.0,47,-99.99,,,0.00,weatherlink.com 1.10,2013-07-04 14:04:00,
2013-07-04 08:18:00,69.8,46.0,29.53,North,8,0.0,-999.0,43,-99.99,,,0.00,weatherlink.com 1.10,2013-07-04 14:18:00,
2013-07-04 08:33:00,72.1,46.0,29.54,North,8,2.0,-999.0,40,-99.99,,,0.00,weatherlink.com 1.10,2013-07-04 14:33:00,
2013-07-04 08:49:00,73.3,43.0,29.54,North,8,2.0,-999.0,34,-99.99,,,0.00,weatherlink.com 1.10,2013-07-04 14:49:00,
2013-07-04 09:04:00,74.6,43.0,29.54,North,8,1.0,-999.0,32,-99.99,,,0.00,weatherlink.com 1.10,2013-07-04 15:04:00,
2013-07-04 09:20:00,75.6,43.0,29.53,North,8,0.0,-999.0,31,-99.99,,,0.00,weatherlink.com 1.10,2013-07-04 15:20:00,
2013-07-04 09:35:00,78.5,45.0,29.52,North,8,1.0,-999.0,30,-99.99,,,0.00,weatherlink.com 1.10,2013-07-04 15:35:00,
2013-07-04 09:49:00,79.2,42.0,29.51,ESE,103,0.0,-999.0,27,-99.99,,,0.00,weatherlink.com 1.10,2013-07-04 15:49:00,
2013-07-04 10:04:00,80.7,44.0,29.50,ENE,73,0.0,-999.0,27,-99.99,,,0.00,weatherlink.com 1.10,2013-07-04 16:04:00,
2013-07-04 10:19:00,82.4,43.0,29.49,SE,134,3.0,-999.0,25,-99.99,,,0.00,weatherlink.com 1.10,2013-07-04 16:19:00,
2013-07-04 10:35:00,84.1,42.0,29.48,SE,131,3.0,-999.0,23,-99.99,,,0.00,weatherlink.com 1.10,2013-07-04 16:35:00,
2013-07-04 10:50:00,84.3,41.0,29.48,East,89,1.0,-999.0,22,-99.99,,,0.00,weatherlink.com 1.10,2013-07-04 16:50:00,
2013-07-04 11:05:00,85.3,44.0,29.48,ENE,69,4.0,-999.0,23,-99.99,,,0.00,weatherlink.com 1.10,2013-07-04 17:05:00,
2013-07-04 11:20:00,85.3,42.0,29.47,ENE,75,0.0,-999.0,22,-99.99,,,0.00,weatherlink.com 1.10,2013-07-04 17:20:00,
2013-07-04 11:35:00,86.3,41.0,29.47,SSE,159,2.0,-999.0,20,-99.99,,,0.00,weatherlink.com 1.10,2013-07-04 17:35:00,
2013-07-04 11:51:00,85.3,40.0,29.48,SSE,165,2.0,-999.0,20,-99.99,,,0.00,weatherlink.com 1.10,2013-07-04 17:51:00,
2013-07-04 12:05:00,86.3,41.0,29.48,SSE,165,3.0,-999.0,20,-99.99,,,0.00,weatherlink.com 1.10,2013-07-04 18:05:00,
2013-07-04 12:21:00,87.6,38.0,29.47,SSW,194,5.0,-999.0,17,-99.99,,,0.00,weatherlink.com 1.10,2013-07-04 18:21:00,
2013-07-04 12:35:00,88.6,41.0,29.47,SSW,209,2.0,-999.0,19,-99.99,,,0.00,weatherlink.com 1.10,2013-07-04 18:35:00,
2013-07-04 12:51:00,89.9,40.0,29.46,SSW,209,1.0,-999.0,17,-99.99,,,0.00,weatherlink.com 1.10,2013-07-04 18:51:00,
2013-07-04 13:05:00,90.7,39.0,29.44,WSW,250,1.0,-999.0,16,-99.99,,,0.00,weatherlink.com 1.10,2013-07-04 19:05:00,
2013-07-04 13:20:00,90.1,40.0,29.45,South,186,3.0,-999.0,17,-99.99,,,0.00,weatherlink.com 1.10,2013-07-04 19:20:00,
2013-07-04 13:35:00,89.5,39.0,29.45,South,191,3.0,-999.0,17,-99.99,,,0.00,weatherlink.com 1.10,2013-07-04 19:35:00,
2013-07-04 13:51:00,89.3,39.0,29.45,SSW,196,0.0,-999.0,17,-99.99,,,0.00,weatherlink.com 1.10,2013-07-04 19:51:00,
2013-07-04 14:06:00,89.0,40.0,29.45,SSW,197,5.0,-999.0,18,-99.99,,,0.00,weatherlink.com 1.10,2013-07-04 20:06:00,
2013-07-04 14:22:00,88.6,38.0,29.45,SSE,160,0.0,-999.0,17,-99.99,,,0.00,weatherlink.com 1.10,2013-07-04 20:22:00,
2013-07-04 14:36:00,89.5,41.0,29.47,SW,214,5.0,-999.0,18,-99.99,,,0.00,weatherlink.com 1.10,2013-07-04 20:36:00,
2013-07-04 14:51:00,90.3,40.0,29.46,SE,132,0.0,-999.0,17,-99.99,,,0.00,weatherlink.com 1.10,2013-07-04 20:51:00,
2013-07-04 15:06:00,90.5,40.0,29.45,SSW,193,2.0,-999.0,17,-99.99,,,0.00,weatherlink.com 1.10,2013-07-04 21:06:00,
2013-07-04 15:22:00,90.3,38.0,29.45,SSW,195,0.0,-999.0,16,-99.99,,,0.00,weatherlink.com 1.10,2013-07-04 21:22:00,
2013-07-04 15:37:00,89.9,40.0,29.44,SSW,204,2.0,-999.0,17,-99.99,,,0.00,weatherlink.com 1.10,2013-07-04 21:37:00,
2013-07-04 15:51:00,89.9,40.0,29.44,South,184,5.0,-999.0,17,-99.99,,,0.00,weatherlink.com 1.10,2013-07-04 21:51:00,
2013-07-04 16:08:00,90.5,40.0,29.43,South,177,0.0,-999.0,17,-99.99,,,0.00,weatherlink.com 1.10,2013-07-04 22:08:00,
2013-07-04 16:21:00,91.0,40.0,29.43,East,91,5.0,-999.0,17,-99.99,,,0.00,weatherlink.com 1.10,2013-07-04 22:21:00,
2013-07-04 16:37:00,91.4,41.0,29.42,ESE,107,4.0,-999.0,17,-99.99,,,0.00,weatherlink.com 1.10,2013-07-04 22:37:00,
2013-07-04 16:52:00,92.5,40.0,29.41,SE,129,0.0,-999.0,16,-99.99,,,0.00,weatherlink.com 1.10,2013-07-04 22:52:00,
2013-07-04 17:07:00,92.1,38.0,29.39,SW,233,5.0,-999.0,15,-99.99,,,0.00,weatherlink.com 1.10,2013-07-04 23:07:00,
2013-07-04 17:23:00,91.0,39.0,29.40,SW,214,0.0,-999.0,16,-99.99,,,0.00,weatherlink.com 1.10,2013-07-04 23:23:00,
2013-07-04 17:38:00,91.2,39.0,29.40,SSW,208,2.0,-999.0,16,-99.99,,,0.00,weatherlink.com 1.10,2013-07-04 23:38:00,
2013-07-04 17:52:00,92.1,40.0,29.38,SSW,200,3.0,-999.0,16,-99.99,,,0.00,weatherlink.com 1.10,2013-07-04 23:52:00,
2013-07-04 18:07:00,89.9,40.0,29.39,SSW,194,4.0,-999.0,17,-99.99,,,0.00,weatherlink.com 1.10,2013-07-05 00:07:00,
2013-07-04 18:23:00,89.7,39.0,29.40,WSW,258,1.0,-999.0,17,-99.99,,,0.00,weatherlink.com 1.10,2013-07-05 00:23:00,
2013-07-04 18:38:00,89.9,38.0,29.38,West,264,4.0,-999.0,16,-99.99,,,0.00,weatherlink.com 1.10,2013-07-05 00:38:00,
2013-07-04 18:53:00,89.7,39.0,29.39,SW,236,4.0,-999.0,17,-99.99,,,0.00,weatherlink.com 1.10,2013-07-05 00:53:00,
2013-07-04 19:09:00,89.0,39.0,29.39,NW,307,10.0,-999.0,17,-99.99,,,0.00,weatherlink.com 1.10,2013-07-05 01:09:00,
2013-07-04 19:23:00,87.0,39.0,29.40,WNW,290,10.0,-999.0,18,-99.99,,,0.00,weatherlink.com 1.10,2013-07-05 01:23:00,
2013-07-04 19:38:00,86.7,38.0,29.38,WNW,283,9.0,-999.0,18,-99.99,,,0.00,weatherlink.com 1.10,2013-07-05 01:38:00,
2013-07-04 19:53:00,86.1,39.0,29.39,SW,227,14.0,-999.0,19,-99.99,,,0.00,weatherlink.com 1.10,2013-07-05 01:53:00,
2013-07-04 20:08:00,84.3,40.0,29.39,SW,233,14.0,-999.0,21,-99.99,,,0.00,weatherlink.com 1.10,2013-07-05 02:08:00,
2013-07-04 20:23:00,83.6,40.0,29.39,SSW,205,0.0,-999.0,21,-99.99,,,0.00,weatherlink.com 1.10,2013-07-05 02:23:00,
2013-07-04 20:38:00,82.8,40.0,29.37,SSW,206,0.0,-999.0,22,-99.99,,,0.00,weatherlink.com 1.10,2013-07-05 02:38:00,
2013-07-04 20:53:00,82.6,39.0,29.39,SSW,206,0.0,-999.0,21,-99.99,,,0.00,weatherlink.com 1.10,2013-07-05 02:53:00,
2013-07-04 21:08:00,82.0,41.0,29.40,NE,42,3.0,-999.0,23,-99.99,,,0.00,weatherlink.com 1.10,2013-07-05 03:08:00,
2013-07-04 21:23:00,80.5,43.0,29.40,ENE,65,3.0,-999.0,26,-99.99,,,0.00,weatherlink.com 1.10,2013-07-05 03:23:00,
2013-07-04 21:38:00,78.8,45.0,29.37,NE,41,2.0,-999.0,30,-99.99,,,0.00,weatherlink.com 1.10,2013-07-05 03:38:00,
2013-07-04 21:53:00,78.6,43.0,29.39,ESE,117,9.0,-999.0,28,-99.99,,,0.00,weatherlink.com 1.10,2013-07-05 03:53:00,
2013-07-04 22:08:00,79.2,42.0,29.39,East,101,5.0,-999.0,27,-99.99,,,0.00,weatherlink.com 1.10,2013-07-05 04:08:00,
2013-07-04 22:23:00,79.2,42.0,29.39,ESE,117,6.0,-999.0,27,-99.99,,,0.00,weatherlink.com 1.10,2013-07-05 04:23:00,
2013-07-04 22:38:00,79.0,42.0,29.38,East,92,5.0,-999.0,27,-99.99,,,0.00,weatherlink.com 1.10,2013-07-05 04:38:00,
2013-07-04 22:53:00,77.9,41.0,29.39,NE,54,0.0,-999.0,27,-99.99,,,0.00,weatherlink.com 1.10,2013-07-05 04:53:00,
2013-07-04 23:08:00,76.0,41.0,29.40,North,359,1.0,-999.0,29,-99.99,,,0.00,weatherlink.com 1.10,2013-07-05 05:08:00,
2013-07-04 23:23:00,77.2,42.0,29.41,North,356,2.0,-999.0,28,-99.99,,,0.00,weatherlink.com 1.10,2013-07-05 05:23:00,
2013-07-04 23:38:00,75.8,42.0,29.39,North,359,0.0,-999.0,30,-99.99,,,0.00,weatherlink.com 1.10,2013-07-05 05:38:00,
2013-07-04 23:53:00,72.3,43.0,29.41,North,359,4.0,-999.0,35,-99.99,,,0.00,weatherlink.com 1.10,2013-07-05 05:53:00,